sensor_id;sensor_type;location;lat;lon;timestamp;P1;durP1;ratioP1;P2;durP2;ratioP2
3407;SDS011;1717;50.240;8.406;2022-12-29T00:01:41;8.10;;;6.00;;
3407;SDS011;1717;50.240;8.406;2022-12-29T00:04:09;8.50;;;5.83;;
3407;SDS011;1717;50.240;8.406;2022-12-29T00:06:38;9.00;;;6.70;;
3407;SDS011;1717;50.240;8.406;2022-12-29T00:09:05;7.27;;;5.97;;
3407;SDS011;1717;50.240;8.406;2022-12-29T00:11:32;8.67;;;6.33;;
3407;SDS011;1717;50.240;8.406;2022-12-29T00:14:00;7.00;;;5.73;;
3407;SDS011;1717;50.240;8.406;2022-12-29T00:16:45;8.00;;;5.90;;
3407;SDS011;1717;50.240;8.406;2022-12-29T00:19:12;6.83;;;5.10;;
3407;SDS011;1717;50.240;8.406;2022-12-29T00:21:52;6.23;;;4.97;;
3407;SDS011;1717;50.240;8.406;2022-12-29T00:24:37;6.40;;;4.67;;
3407;SDS011;1717;50.240;8.406;2022-12-29T00:27:21;6.40;;;4.50;;
3407;SDS011;1717;50.240;8.406;2022-12-29T00:30:13;7.07;;;5.50;;
3407;SDS011;1717;50.240;8.406;2022-12-29T00:32:59;7.23;;;4.80;;
3407;SDS011;1717;50.240;8.406;2022-12-29T00:35:44;10.00;;;5.20;;
3407;SDS011;1717;50.240;8.406;2022-12-29T00:38:17;5.27;;;4.70;;
3407;SDS011;1717;50.240;8.406;2022-12-29T00:41:01;8.00;;;5.23;;
3407;SDS011;1717;50.240;8.406;2022-12-29T00:43:46;6.90;;;5.13;;
3407;SDS011;1717;50.240;8.406;2022-12-29T00:46:32;6.33;;;4.30;;
3407;SDS011;1717;50.240;8.406;2022-12-29T00:49:00;8.83;;;5.57;;
3407;SDS011;1717;50.240;8.406;2022-12-29T00:51:46;7.17;;;4.93;;
3407;SDS011;1717;50.240;8.406;2022-12-29T00:54:13;8.53;;;4.97;;
3407;SDS011;1717;50.240;8.406;2022-12-29T00:56:41;4.57;;;4.07;;
3407;SDS011;1717;50.240;8.406;2022-12-29T00:59:08;6.43;;;4.43;;
3407;SDS011;1717;50.240;8.406;2022-12-29T01:01:38;6.90;;;4.17;;
3407;SDS011;1717;50.240;8.406;2022-12-29T01:04:05;6.10;;;4.83;;
3407;SDS011;1717;50.240;8.406;2022-12-29T01:06:33;6.10;;;5.50;;
3407;SDS011;1717;50.240;8.406;2022-12-29T01:09:01;5.60;;;4.77;;
3407;SDS011;1717;50.240;8.406;2022-12-29T01:11:46;6.67;;;4.30;;
3407;SDS011;1717;50.240;8.406;2022-12-29T01:14:13;8.27;;;4.70;;
3407;SDS011;1717;50.240;8.406;2022-12-29T01:16:41;6.10;;;4.40;;
3407;SDS011;1717;50.240;8.406;2022-12-29T01:19:08;6.50;;;4.60;;
3407;SDS011;1717;50.240;8.406;2022-12-29T01:21:35;7.30;;;5.20;;
3407;SDS011;1717;50.240;8.406;2022-12-29T01:24:01;5.17;;;4.43;;
3407;SDS011;1717;50.240;8.406;2022-12-29T01:26:28;5.60;;;4.30;;
3407;SDS011;1717;50.240;8.406;2022-12-29T01:28:55;7.43;;;5.83;;
3407;SDS011;1717;50.240;8.406;2022-12-29T01:31:22;6.40;;;4.87;;
3407;SDS011;1717;50.240;8.406;2022-12-29T01:33:50;5.50;;;5.00;;
3407;SDS011;1717;50.240;8.406;2022-12-29T01:36:17;5.33;;;4.20;;
3407;SDS011;1717;50.240;8.406;2022-12-29T01:38:45;4.73;;;3.93;;
3407;SDS011;1717;50.240;8.406;2022-12-29T01:41:12;5.87;;;4.70;;
3407;SDS011;1717;50.240;8.406;2022-12-29T01:43:41;5.90;;;4.93;;
3407;SDS011;1717;50.240;8.406;2022-12-29T01:46:15;7.40;;;5.00;;
3407;SDS011;1717;50.240;8.406;2022-12-29T01:48:52;7.63;;;4.57;;
3407;SDS011;1717;50.240;8.406;2022-12-29T01:51:24;5.77;;;4.50;;
3407;SDS011;1717;50.240;8.406;2022-12-29T01:53:52;4.97;;;4.57;;
3407;SDS011;1717;50.240;8.406;2022-12-29T01:56:22;5.70;;;4.40;;
3407;SDS011;1717;50.240;8.406;2022-12-29T01:58:51;6.83;;;4.77;;
3407;SDS011;1717;50.240;8.406;2022-12-29T02:01:24;5.60;;;4.10;;
3407;SDS011;1717;50.240;8.406;2022-12-29T02:03:52;4.77;;;4.20;;
3407;SDS011;1717;50.240;8.406;2022-12-29T02:06:21;5.13;;;3.77;;
3407;SDS011;1717;50.240;8.406;2022-12-29T02:08:49;5.93;;;4.47;;
3407;SDS011;1717;50.240;8.406;2022-12-29T02:11:18;4.63;;;4.20;;
3407;SDS011;1717;50.240;8.406;2022-12-29T02:13:47;7.97;;;5.40;;
3407;SDS011;1717;50.240;8.406;2022-12-29T02:16:16;6.83;;;5.70;;
3407;SDS011;1717;50.240;8.406;2022-12-29T02:18:57;7.70;;;4.50;;
3407;SDS011;1717;50.240;8.406;2022-12-29T02:27:40;5.77;;;4.57;;
3407;SDS011;1717;50.240;8.406;2022-12-29T02:30:35;5.00;;;4.57;;
3407;SDS011;1717;50.240;8.406;2022-12-29T02:33:07;6.73;;;3.93;;
3407;SDS011;1717;50.240;8.406;2022-12-29T02:35:46;4.33;;;3.93;;
3407;SDS011;1717;50.240;8.406;2022-12-29T02:38:20;4.83;;;4.20;;
3407;SDS011;1717;50.240;8.406;2022-12-29T02:40:57;7.80;;;4.20;;
3407;SDS011;1717;50.240;8.406;2022-12-29T02:43:33;5.27;;;4.73;;
3407;SDS011;1717;50.240;8.406;2022-12-29T02:46:09;7.03;;;4.70;;
3407;SDS011;1717;50.240;8.406;2022-12-29T02:48:45;5.13;;;4.00;;
3407;SDS011;1717;50.240;8.406;2022-12-29T02:51:18;5.37;;;4.27;;
3407;SDS011;1717;50.240;8.406;2022-12-29T02:53:49;4.83;;;4.43;;
3407;SDS011;1717;50.240;8.406;2022-12-29T02:56:36;5.40;;;4.43;;
3407;SDS011;1717;50.240;8.406;2022-12-29T02:59:02;5.10;;;4.70;;
3407;SDS011;1717;50.240;8.406;2022-12-29T03:01:33;4.73;;;4.33;;
3407;SDS011;1717;50.240;8.406;2022-12-29T03:04:27;6.13;;;4.40;;
3407;SDS011;1717;50.240;8.406;2022-12-29T03:07:00;6.80;;;4.73;;
3407;SDS011;1717;50.240;8.406;2022-12-29T03:09:35;5.23;;;4.37;;
3407;SDS011;1717;50.240;8.406;2022-12-29T03:12:11;5.43;;;4.90;;
3407;SDS011;1717;50.240;8.406;2022-12-29T03:14:49;5.57;;;5.07;;
3407;SDS011;1717;50.240;8.406;2022-12-29T03:17:46;4.50;;;4.13;;
3407;SDS011;1717;50.240;8.406;2022-12-29T03:20:19;4.70;;;4.30;;
3407;SDS011;1717;50.240;8.406;2022-12-29T03:22:50;5.80;;;4.53;;
3407;SDS011;1717;50.240;8.406;2022-12-29T03:25:20;4.70;;;4.30;;
3407;SDS011;1717;50.240;8.406;2022-12-29T03:27:51;4.33;;;3.93;;
3407;SDS011;1717;50.240;8.406;2022-12-29T03:30:21;7.50;;;4.57;;
3407;SDS011;1717;50.240;8.406;2022-12-29T03:32:51;4.53;;;3.47;;
3407;SDS011;1717;50.240;8.406;2022-12-29T03:35:21;5.17;;;3.93;;
3407;SDS011;1717;50.240;8.406;2022-12-29T03:37:52;3.87;;;3.47;;
3407;SDS011;1717;50.240;8.406;2022-12-29T03:40:24;4.10;;;3.70;;
3407;SDS011;1717;50.240;8.406;2022-12-29T03:42:53;4.40;;;4.00;;
3407;SDS011;1717;50.240;8.406;2022-12-29T03:45:20;4.70;;;3.07;;
3407;SDS011;1717;50.240;8.406;2022-12-29T03:47:47;4.10;;;3.63;;
3407;SDS011;1717;50.240;8.406;2022-12-29T03:50:15;4.57;;;4.00;;
3407;SDS011;1717;50.240;8.406;2022-12-29T03:52:42;4.30;;;3.90;;
3407;SDS011;1717;50.240;8.406;2022-12-29T03:55:09;4.00;;;3.60;;
3407;SDS011;1717;50.240;8.406;2022-12-29T03:57:35;3.77;;;3.47;;
3407;SDS011;1717;50.240;8.406;2022-12-29T04:00:03;4.63;;;3.83;;
3407;SDS011;1717;50.240;8.406;2022-12-29T04:02:31;3.67;;;3.37;;
3407;SDS011;1717;50.240;8.406;2022-12-29T04:04:58;3.90;;;3.50;;
3407;SDS011;1717;50.240;8.406;2022-12-29T04:07:26;3.67;;;3.33;;
3407;SDS011;1717;50.240;8.406;2022-12-29T04:09:52;4.17;;;3.50;;
3407;SDS011;1717;50.240;8.406;2022-12-29T04:12:19;3.53;;;3.20;;
3407;SDS011;1717;50.240;8.406;2022-12-29T04:14:46;5.20;;;4.23;;
3407;SDS011;1717;50.240;8.406;2022-12-29T04:17:13;4.63;;;4.20;;
3407;SDS011;1717;50.240;8.406;2022-12-29T04:19:40;4.67;;;3.93;;
3407;SDS011;1717;50.240;8.406;2022-12-29T04:22:06;4.13;;;3.70;;
3407;SDS011;1717;50.240;8.406;2022-12-29T04:24:33;7.70;;;4.77;;
3407;SDS011;1717;50.240;8.406;2022-12-29T04:27:00;6.10;;;4.60;;
3407;SDS011;1717;50.240;8.406;2022-12-29T04:29:27;5.27;;;4.00;;
3407;SDS011;1717;50.240;8.406;2022-12-29T04:31:54;4.57;;;4.10;;
3407;SDS011;1717;50.240;8.406;2022-12-29T04:34:21;9.23;;;5.50;;
3407;SDS011;1717;50.240;8.406;2022-12-29T04:36:48;6.10;;;4.70;;
3407;SDS011;1717;50.240;8.406;2022-12-29T04:39:15;7.50;;;3.90;;
3407;SDS011;1717;50.240;8.406;2022-12-29T04:41:43;6.17;;;4.80;;
3407;SDS011;1717;50.240;8.406;2022-12-29T04:44:10;4.97;;;4.40;;
3407;SDS011;1717;50.240;8.406;2022-12-29T04:46:36;4.60;;;3.70;;
3407;SDS011;1717;50.240;8.406;2022-12-29T04:49:03;4.40;;;4.00;;
3407;SDS011;1717;50.240;8.406;2022-12-29T04:51:33;5.20;;;3.67;;
3407;SDS011;1717;50.240;8.406;2022-12-29T04:54:00;5.30;;;4.27;;
3407;SDS011;1717;50.240;8.406;2022-12-29T04:56:27;5.90;;;4.17;;
3407;SDS011;1717;50.240;8.406;2022-12-29T04:58:55;5.97;;;4.40;;
3407;SDS011;1717;50.240;8.406;2022-12-29T05:01:22;11.07;;;5.00;;
3407;SDS011;1717;50.240;8.406;2022-12-29T05:03:49;5.40;;;4.17;;
3407;SDS011;1717;50.240;8.406;2022-12-29T05:06:17;4.70;;;4.27;;
3407;SDS011;1717;50.240;8.406;2022-12-29T05:08:43;6.70;;;4.33;;
3407;SDS011;1717;50.240;8.406;2022-12-29T05:11:10;5.17;;;4.53;;
3407;SDS011;1717;50.240;8.406;2022-12-29T05:13:37;6.00;;;3.90;;
3407;SDS011;1717;50.240;8.406;2022-12-29T05:16:06;4.33;;;3.93;;
3407;SDS011;1717;50.240;8.406;2022-12-29T05:18:32;5.37;;;4.87;;
3407;SDS011;1717;50.240;8.406;2022-12-29T05:20:59;4.97;;;4.10;;
3407;SDS011;1717;50.240;8.406;2022-12-29T05:23:26;4.83;;;4.33;;
3407;SDS011;1717;50.240;8.406;2022-12-29T05:25:53;5.20;;;4.03;;
3407;SDS011;1717;50.240;8.406;2022-12-29T05:28:19;5.13;;;4.63;;
3407;SDS011;1717;50.240;8.406;2022-12-29T05:30:47;6.30;;;4.20;;
3407;SDS011;1717;50.240;8.406;2022-12-29T05:33:16;5.00;;;3.90;;
3407;SDS011;1717;50.240;8.406;2022-12-29T05:35:43;4.57;;;3.83;;
3407;SDS011;1717;50.240;8.406;2022-12-29T05:38:10;9.63;;;4.43;;
3407;SDS011;1717;50.240;8.406;2022-12-29T05:40:37;4.27;;;3.87;;
3407;SDS011;1717;50.240;8.406;2022-12-29T05:43:04;5.57;;;5.07;;
3407;SDS011;1717;50.240;8.406;2022-12-29T05:45:30;5.00;;;4.17;;
3407;SDS011;1717;50.240;8.406;2022-12-29T05:47:57;4.53;;;3.90;;
3407;SDS011;1717;50.240;8.406;2022-12-29T05:50:25;3.60;;;3.30;;
3407;SDS011;1717;50.240;8.406;2022-12-29T05:52:52;5.83;;;3.80;;
3407;SDS011;1717;50.240;8.406;2022-12-29T05:55:19;3.63;;;3.20;;
3407;SDS011;1717;50.240;8.406;2022-12-29T05:57:46;5.13;;;4.20;;
3407;SDS011;1717;50.240;8.406;2022-12-29T06:00:13;4.67;;;3.70;;
3407;SDS011;1717;50.240;8.406;2022-12-29T06:02:41;3.90;;;3.40;;
3407;SDS011;1717;50.240;8.406;2022-12-29T06:05:08;5.13;;;3.87;;
3407;SDS011;1717;50.240;8.406;2022-12-29T06:07:36;4.60;;;3.57;;
3407;SDS011;1717;50.240;8.406;2022-12-29T06:10:03;7.20;;;4.77;;
3407;SDS011;1717;50.240;8.406;2022-12-29T06:12:31;4.83;;;4.30;;
3407;SDS011;1717;50.240;8.406;2022-12-29T06:14:57;4.57;;;3.97;;
3407;SDS011;1717;50.240;8.406;2022-12-29T06:17:24;4.13;;;3.83;;
3407;SDS011;1717;50.240;8.406;2022-12-29T06:19:51;4.70;;;3.90;;
3407;SDS011;1717;50.240;8.406;2022-12-29T06:22:18;4.20;;;3.67;;
3407;SDS011;1717;50.240;8.406;2022-12-29T06:24:46;4.80;;;3.77;;
3407;SDS011;1717;50.240;8.406;2022-12-29T06:27:13;5.43;;;4.40;;
3407;SDS011;1717;50.240;8.406;2022-12-29T06:29:39;4.53;;;4.13;;
3407;SDS011;1717;50.240;8.406;2022-12-29T06:32:07;9.07;;;4.20;;
3407;SDS011;1717;50.240;8.406;2022-12-29T06:34:34;5.53;;;4.30;;
3407;SDS011;1717;50.240;8.406;2022-12-29T06:37:01;10.63;;;4.80;;
3407;SDS011;1717;50.240;8.406;2022-12-29T06:39:28;5.70;;;4.10;;
3407;SDS011;1717;50.240;8.406;2022-12-29T06:41:56;4.20;;;3.80;;
3407;SDS011;1717;50.240;8.406;2022-12-29T06:44:23;5.17;;;3.90;;
3407;SDS011;1717;50.240;8.406;2022-12-29T06:46:50;5.50;;;5.00;;
3407;SDS011;1717;50.240;8.406;2022-12-29T06:49:17;4.93;;;4.43;;
3407;SDS011;1717;50.240;8.406;2022-12-29T06:51:44;6.30;;;5.10;;
3407;SDS011;1717;50.240;8.406;2022-12-29T06:54:11;5.67;;;3.87;;
3407;SDS011;1717;50.240;8.406;2022-12-29T06:56:38;7.33;;;4.53;;
3407;SDS011;1717;50.240;8.406;2022-12-29T06:59:06;5.27;;;4.30;;
3407;SDS011;1717;50.240;8.406;2022-12-29T07:01:34;4.97;;;4.00;;
3407;SDS011;1717;50.240;8.406;2022-12-29T07:04:01;6.30;;;4.73;;
3407;SDS011;1717;50.240;8.406;2022-12-29T07:06:28;7.53;;;4.30;;
3407;SDS011;1717;50.240;8.406;2022-12-29T07:08:55;5.57;;;4.13;;
3407;SDS011;1717;50.240;8.406;2022-12-29T07:11:22;4.27;;;3.87;;
3407;SDS011;1717;50.240;8.406;2022-12-29T07:13:49;4.10;;;3.70;;
3407;SDS011;1717;50.240;8.406;2022-12-29T07:16:17;3.70;;;3.37;;
3407;SDS011;1717;50.240;8.406;2022-12-29T07:18:45;4.10;;;3.70;;
3407;SDS011;1717;50.240;8.406;2022-12-29T07:21:12;3.90;;;3.50;;
3407;SDS011;1717;50.240;8.406;2022-12-29T07:23:38;6.60;;;3.77;;
3407;SDS011;1717;50.240;8.406;2022-12-29T07:26:06;4.57;;;4.03;;
3407;SDS011;1717;50.240;8.406;2022-12-29T07:28:35;4.53;;;3.87;;
3407;SDS011;1717;50.240;8.406;2022-12-29T07:31:03;5.23;;;4.63;;
3407;SDS011;1717;50.240;8.406;2022-12-29T07:33:31;4.10;;;3.70;;
3407;SDS011;1717;50.240;8.406;2022-12-29T07:35:58;7.83;;;4.10;;
3407;SDS011;1717;50.240;8.406;2022-12-29T07:38:25;7.40;;;3.97;;
3407;SDS011;1717;50.240;8.406;2022-12-29T07:40:55;13.50;;;4.30;;
3407;SDS011;1717;50.240;8.406;2022-12-29T07:43:23;5.73;;;4.50;;
3407;SDS011;1717;50.240;8.406;2022-12-29T07:45:49;9.00;;;4.50;;
3407;SDS011;1717;50.240;8.406;2022-12-29T07:48:16;5.93;;;4.10;;
3407;SDS011;1717;50.240;8.406;2022-12-29T07:50:44;5.30;;;4.17;;
3407;SDS011;1717;50.240;8.406;2022-12-29T07:53:11;6.17;;;3.90;;
3407;SDS011;1717;50.240;8.406;2022-12-29T07:55:38;5.97;;;4.10;;
3407;SDS011;1717;50.240;8.406;2022-12-29T07:58:05;5.00;;;3.70;;
3407;SDS011;1717;50.240;8.406;2022-12-29T08:00:32;8.17;;;3.40;;
3407;SDS011;1717;50.240;8.406;2022-12-29T08:03:00;4.17;;;3.60;;
3407;SDS011;1717;50.240;8.406;2022-12-29T08:05:27;6.63;;;4.23;;
3407;SDS011;1717;50.240;8.406;2022-12-29T08:07:55;4.63;;;4.13;;
3407;SDS011;1717;50.240;8.406;2022-12-29T08:10:22;5.97;;;3.90;;
3407;SDS011;1717;50.240;8.406;2022-12-29T08:12:49;18.73;;;4.80;;
3407;SDS011;1717;50.240;8.406;2022-12-29T08:15:16;9.73;;;5.17;;
3407;SDS011;1717;50.240;8.406;2022-12-29T08:17:43;4.50;;;4.10;;
3407;SDS011;1717;50.240;8.406;2022-12-29T08:20:10;7.20;;;4.13;;
3407;SDS011;1717;50.240;8.406;2022-12-29T08:22:37;4.87;;;4.10;;
3407;SDS011;1717;50.240;8.406;2022-12-29T08:25:05;4.63;;;4.23;;
3407;SDS011;1717;50.240;8.406;2022-12-29T08:27:32;8.00;;;5.20;;
3407;SDS011;1717;50.240;8.406;2022-12-29T08:29:59;5.77;;;4.70;;
3407;SDS011;1717;50.240;8.406;2022-12-29T08:32:26;7.00;;;5.47;;
3407;SDS011;1717;50.240;8.406;2022-12-29T08:34:53;8.70;;;5.70;;
3407;SDS011;1717;50.240;8.406;2022-12-29T08:37:20;6.00;;;5.40;;
3407;SDS011;1717;50.240;8.406;2022-12-29T08:39:48;10.77;;;6.40;;
3407;SDS011;1717;50.240;8.406;2022-12-29T08:42:16;6.50;;;5.37;;
3407;SDS011;1717;50.240;8.406;2022-12-29T08:44:42;5.23;;;4.73;;
3407;SDS011;1717;50.240;8.406;2022-12-29T08:47:09;5.53;;;5.00;;
3407;SDS011;1717;50.240;8.406;2022-12-29T08:49:37;6.30;;;5.47;;
3407;SDS011;1717;50.240;8.406;2022-12-29T08:52:04;6.57;;;5.97;;
3407;SDS011;1717;50.240;8.406;2022-12-29T08:54:31;8.80;;;5.30;;
3407;SDS011;1717;50.240;8.406;2022-12-29T08:56:57;5.63;;;4.87;;
3407;SDS011;1717;50.240;8.406;2022-12-29T08:59:26;7.10;;;4.63;;
3407;SDS011;1717;50.240;8.406;2022-12-29T09:01:52;5.67;;;4.47;;
3407;SDS011;1717;50.240;8.406;2022-12-29T09:04:20;6.23;;;4.70;;
3407;SDS011;1717;50.240;8.406;2022-12-29T09:06:48;6.50;;;4.63;;
3407;SDS011;1717;50.240;8.406;2022-12-29T09:09:15;7.33;;;4.50;;
3407;SDS011;1717;50.240;8.406;2022-12-29T09:11:43;6.10;;;4.80;;
3407;SDS011;1717;50.240;8.406;2022-12-29T09:14:10;7.70;;;5.77;;
3407;SDS011;1717;50.240;8.406;2022-12-29T09:16:39;7.20;;;4.83;;
3407;SDS011;1717;50.240;8.406;2022-12-29T09:19:23;6.33;;;4.57;;
3407;SDS011;1717;50.240;8.406;2022-12-29T09:21:50;5.30;;;4.60;;
3407;SDS011;1717;50.240;8.406;2022-12-29T09:24:16;5.47;;;4.93;;
3407;SDS011;1717;50.240;8.406;2022-12-29T09:26:43;5.03;;;4.33;;
3407;SDS011;1717;50.240;8.406;2022-12-29T09:29:10;5.33;;;4.80;;
3407;SDS011;1717;50.240;8.406;2022-12-29T09:31:38;7.40;;;5.70;;
3407;SDS011;1717;50.240;8.406;2022-12-29T09:34:05;8.00;;;5.77;;
3407;SDS011;1717;50.240;8.406;2022-12-29T09:36:32;6.93;;;5.20;;
3407;SDS011;1717;50.240;8.406;2022-12-29T09:38:58;6.27;;;5.27;;
3407;SDS011;1717;50.240;8.406;2022-12-29T09:41:26;7.57;;;5.10;;
3407;SDS011;1717;50.240;8.406;2022-12-29T09:44:03;7.40;;;5.17;;
3407;SDS011;1717;50.240;8.406;2022-12-29T09:46:40;5.63;;;4.40;;
3407;SDS011;1717;50.240;8.406;2022-12-29T09:49:15;6.77;;;6.10;;
3407;SDS011;1717;50.240;8.406;2022-12-29T09:51:48;5.70;;;4.63;;
3407;SDS011;1717;50.240;8.406;2022-12-29T09:54:32;6.27;;;4.67;;
3407;SDS011;1717;50.240;8.406;2022-12-29T09:57:08;6.97;;;4.83;;
3407;SDS011;1717;50.240;8.406;2022-12-29T09:59:41;6.63;;;4.40;;
3407;SDS011;1717;50.240;8.406;2022-12-29T10:02:20;5.00;;;4.23;;
3407;SDS011;1717;50.240;8.406;2022-12-29T10:04:57;4.83;;;4.43;;
3407;SDS011;1717;50.240;8.406;2022-12-29T10:07:27;5.80;;;5.03;;
3407;SDS011;1717;50.240;8.406;2022-12-29T10:10:09;7.10;;;4.10;;
3407;SDS011;1717;50.240;8.406;2022-12-29T10:12:52;5.40;;;4.07;;
3407;SDS011;1717;50.240;8.406;2022-12-29T10:15:33;4.93;;;3.93;;
3407;SDS011;1717;50.240;8.406;2022-12-29T10:18:16;6.50;;;3.97;;
3407;SDS011;1717;50.240;8.406;2022-12-29T10:20:49;5.20;;;4.27;;
3407;SDS011;1717;50.240;8.406;2022-12-29T10:23:24;5.30;;;3.60;;
3407;SDS011;1717;50.240;8.406;2022-12-29T10:25:53;4.87;;;3.53;;
3407;SDS011;1717;50.240;8.406;2022-12-29T10:28:22;4.23;;;3.83;;
3407;SDS011;1717;50.240;8.406;2022-12-29T10:30:51;4.67;;;4.20;;
3407;SDS011;1717;50.240;8.406;2022-12-29T10:33:21;5.33;;;4.03;;
3407;SDS011;1717;50.240;8.406;2022-12-29T10:35:50;6.07;;;3.33;;
3407;SDS011;1717;50.240;8.406;2022-12-29T10:38:20;10.70;;;4.20;;
3407;SDS011;1717;50.240;8.406;2022-12-29T10:40:52;5.80;;;3.77;;
3407;SDS011;1717;50.240;8.406;2022-12-29T10:43:25;4.20;;;3.50;;
3407;SDS011;1717;50.240;8.406;2022-12-29T10:45:53;3.93;;;3.53;;
3407;SDS011;1717;50.240;8.406;2022-12-29T10:48:25;5.93;;;4.20;;
3407;SDS011;1717;50.240;8.406;2022-12-29T10:50:56;4.40;;;3.00;;
3407;SDS011;1717;50.240;8.406;2022-12-29T10:53:26;4.90;;;3.40;;
3407;SDS011;1717;50.240;8.406;2022-12-29T10:55:56;4.27;;;3.87;;
3407;SDS011;1717;50.240;8.406;2022-12-29T10:58:26;6.10;;;3.90;;
3407;SDS011;1717;50.240;8.406;2022-12-29T11:00:56;7.87;;;4.63;;
3407;SDS011;1717;50.240;8.406;2022-12-29T11:06:25;3.17;;;2.73;;
3407;SDS011;1717;50.240;8.406;2022-12-29T11:08:55;4.37;;;2.60;;
3407;SDS011;1717;50.240;8.406;2022-12-29T11:11:25;2.50;;;2.30;;
3407;SDS011;1717;50.240;8.406;2022-12-29T11:13:57;8.03;;;2.80;;
3407;SDS011;1717;50.240;8.406;2022-12-29T11:16:29;2.40;;;1.33;;
3407;SDS011;1717;50.240;8.406;2022-12-29T11:18:58;1.77;;;1.17;;
3407;SDS011;1717;50.240;8.406;2022-12-29T11:21:27;3.37;;;1.13;;
3407;SDS011;1717;50.240;8.406;2022-12-29T11:23:58;4.90;;;1.60;;
3407;SDS011;1717;50.240;8.406;2022-12-29T11:26:27;4.53;;;1.13;;
3407;SDS011;1717;50.240;8.406;2022-12-29T11:29:05;1.77;;;1.00;;
3407;SDS011;1717;50.240;8.406;2022-12-29T11:31:50;3.70;;;1.17;;
3407;SDS011;1717;50.240;8.406;2022-12-29T11:34:21;1.57;;;0.77;;
3407;SDS011;1717;50.240;8.406;2022-12-29T11:36:50;1.13;;;0.60;;
3407;SDS011;1717;50.240;8.406;2022-12-29T11:39:24;2.20;;;0.87;;
3407;SDS011;1717;50.240;8.406;2022-12-29T11:41:56;2.00;;;0.67;;
3407;SDS011;1717;50.240;8.406;2022-12-29T11:44:23;8.90;;;0.83;;
3407;SDS011;1717;50.240;8.406;2022-12-29T11:46:53;4.30;;;1.13;;
3407;SDS011;1717;50.240;8.406;2022-12-29T11:49:23;2.27;;;1.03;;
3407;SDS011;1717;50.240;8.406;2022-12-29T11:51:52;2.40;;;1.27;;
3407;SDS011;1717;50.240;8.406;2022-12-29T11:54:22;3.03;;;0.60;;
3407;SDS011;1717;50.240;8.406;2022-12-29T11:56:53;2.00;;;0.70;;
3407;SDS011;1717;50.240;8.406;2022-12-29T11:59:34;1.30;;;0.60;;
3407;SDS011;1717;50.240;8.406;2022-12-29T12:05:19;1.00;;;0.90;;
3407;SDS011;1717;50.240;8.406;2022-12-29T12:08:05;2.00;;;0.97;;
3407;SDS011;1717;50.240;8.406;2022-12-29T12:10:39;2.07;;;0.77;;
3407;SDS011;1717;50.240;8.406;2022-12-29T12:13:21;1.80;;;0.70;;
3407;SDS011;1717;50.240;8.406;2022-12-29T12:15:52;6.03;;;1.10;;
3407;SDS011;1717;50.240;8.406;2022-12-29T12:18:30;2.00;;;0.90;;
3407;SDS011;1717;50.240;8.406;2022-12-29T12:21:06;2.47;;;0.90;;
3407;SDS011;1717;50.240;8.406;2022-12-29T12:23:42;2.13;;;0.87;;
3407;SDS011;1717;50.240;8.406;2022-12-29T12:26:18;1.23;;;0.70;;
3407;SDS011;1717;50.240;8.406;2022-12-29T12:28:50;2.60;;;1.07;;
3407;SDS011;1717;50.240;8.406;2022-12-29T12:31:27;3.00;;;0.80;;
3407;SDS011;1717;50.240;8.406;2022-12-29T12:34:10;6.70;;;1.10;;
3407;SDS011;1717;50.240;8.406;2022-12-29T12:36:49;4.70;;;1.10;;
3407;SDS011;1717;50.240;8.406;2022-12-29T12:39:36;2.33;;;1.07;;
3407;SDS011;1717;50.240;8.406;2022-12-29T12:42:14;2.73;;;0.70;;
3407;SDS011;1717;50.240;8.406;2022-12-29T12:44:57;2.57;;;0.73;;
3407;SDS011;1717;50.240;8.406;2022-12-29T12:47:44;2.40;;;0.90;;
3407;SDS011;1717;50.240;8.406;2022-12-29T12:50:25;1.50;;;0.90;;
3407;SDS011;1717;50.240;8.406;2022-12-29T12:53:08;4.33;;;1.70;;
3407;SDS011;1717;50.240;8.406;2022-12-29T12:58:45;3.70;;;1.10;;
3407;SDS011;1717;50.240;8.406;2022-12-29T13:01:24;3.80;;;0.80;;
3407;SDS011;1717;50.240;8.406;2022-12-29T13:04:12;1.23;;;0.77;;
3407;SDS011;1717;50.240;8.406;2022-12-29T13:07:04;3.40;;;0.80;;
3407;SDS011;1717;50.240;8.406;2022-12-29T13:12:46;3.70;;;1.13;;
3407;SDS011;1717;50.240;8.406;2022-12-29T13:15:22;2.37;;;0.70;;
3407;SDS011;1717;50.240;8.406;2022-12-29T13:18:04;1.80;;;0.80;;
3407;SDS011;1717;50.240;8.406;2022-12-29T13:20:40;1.80;;;0.80;;
3407;SDS011;1717;50.240;8.406;2022-12-29T13:23:13;2.20;;;0.80;;
3407;SDS011;1717;50.240;8.406;2022-12-29T13:25:51;1.90;;;0.90;;
3407;SDS011;1717;50.240;8.406;2022-12-29T13:28:26;2.30;;;1.00;;
3407;SDS011;1717;50.240;8.406;2022-12-29T13:31:00;2.80;;;1.30;;
3407;SDS011;1717;50.240;8.406;2022-12-29T13:33:33;5.17;;;1.50;;
3407;SDS011;1717;50.240;8.406;2022-12-29T13:36:09;4.00;;;0.90;;
3407;SDS011;1717;50.240;8.406;2022-12-29T13:38:45;2.37;;;1.30;;
3407;SDS011;1717;50.240;8.406;2022-12-29T13:41:25;1.93;;;0.63;;
3407;SDS011;1717;50.240;8.406;2022-12-29T13:43:56;2.50;;;0.77;;
3407;SDS011;1717;50.240;8.406;2022-12-29T13:46:25;2.10;;;1.00;;
3407;SDS011;1717;50.240;8.406;2022-12-29T13:48:56;1.53;;;1.00;;
3407;SDS011;1717;50.240;8.406;2022-12-29T13:51:28;3.23;;;1.40;;
3407;SDS011;1717;50.240;8.406;2022-12-29T13:54:00;1.37;;;1.00;;
3407;SDS011;1717;50.240;8.406;2022-12-29T13:56:40;1.63;;;0.90;;
3407;SDS011;1717;50.240;8.406;2022-12-29T13:59:14;2.43;;;2.23;;
3407;SDS011;1717;50.240;8.406;2022-12-29T14:01:49;3.23;;;1.47;;
3407;SDS011;1717;50.240;8.406;2022-12-29T14:04:21;2.20;;;1.13;;
3407;SDS011;1717;50.240;8.406;2022-12-29T14:06:59;1.23;;;0.97;;
3407;SDS011;1717;50.240;8.406;2022-12-29T14:09:35;1.30;;;1.00;;
3407;SDS011;1717;50.240;8.406;2022-12-29T14:12:19;2.67;;;1.60;;
3407;SDS011;1717;50.240;8.406;2022-12-29T14:14:51;1.00;;;0.80;;
3407;SDS011;1717;50.240;8.406;2022-12-29T14:17:19;2.43;;;2.00;;
3407;SDS011;1717;50.240;8.406;2022-12-29T14:19:47;9.37;;;3.43;;
3407;SDS011;1717;50.240;8.406;2022-12-29T14:22:22;6.17;;;1.33;;
3407;SDS011;1717;50.240;8.406;2022-12-29T14:24:50;1.77;;;1.20;;
3407;SDS011;1717;50.240;8.406;2022-12-29T14:30:45;3.10;;;1.57;;
3407;SDS011;1717;50.240;8.406;2022-12-29T14:33:15;1.60;;;1.30;;
3407;SDS011;1717;50.240;8.406;2022-12-29T14:35:43;2.20;;;1.13;;
3407;SDS011;1717;50.240;8.406;2022-12-29T14:38:18;3.93;;;2.67;;
3407;SDS011;1717;50.240;8.406;2022-12-29T14:40:47;2.77;;;1.40;;
3407;SDS011;1717;50.240;8.406;2022-12-29T14:43:21;2.20;;;1.10;;
3407;SDS011;1717;50.240;8.406;2022-12-29T14:45:52;1.50;;;1.10;;
3407;SDS011;1717;50.240;8.406;2022-12-29T14:48:31;3.67;;;2.67;;
3407;SDS011;1717;50.240;8.406;2022-12-29T14:53:48;3.03;;;1.27;;
3407;SDS011;1717;50.240;8.406;2022-12-29T14:56:16;4.00;;;1.87;;
3407;SDS011;1717;50.240;8.406;2022-12-29T14:58:48;3.20;;;1.60;;
3407;SDS011;1717;50.240;8.406;2022-12-29T15:01:19;5.03;;;1.27;;
3407;SDS011;1717;50.240;8.406;2022-12-29T15:03:51;3.67;;;1.53;;
3407;SDS011;1717;50.240;8.406;2022-12-29T15:06:20;1.57;;;1.07;;
3407;SDS011;1717;50.240;8.406;2022-12-29T15:08:50;2.50;;;1.13;;
3407;SDS011;1717;50.240;8.406;2022-12-29T15:11:21;4.67;;;1.93;;
3407;SDS011;1717;50.240;8.406;2022-12-29T15:13:50;2.20;;;1.33;;
3407;SDS011;1717;50.240;8.406;2022-12-29T15:16:21;4.10;;;1.20;;
3407;SDS011;1717;50.240;8.406;2022-12-29T15:18:49;1.53;;;1.10;;
3407;SDS011;1717;50.240;8.406;2022-12-29T15:21:16;6.60;;;1.27;;
3407;SDS011;1717;50.240;8.406;2022-12-29T15:23:45;3.13;;;1.93;;
3407;SDS011;1717;50.240;8.406;2022-12-29T15:26:13;2.60;;;1.03;;
3407;SDS011;1717;50.240;8.406;2022-12-29T15:28:46;5.60;;;1.77;;
3407;SDS011;1717;50.240;8.406;2022-12-29T15:31:15;2.90;;;1.27;;
3407;SDS011;1717;50.240;8.406;2022-12-29T15:33:44;1.43;;;0.80;;
3407;SDS011;1717;50.240;8.406;2022-12-29T15:36:13;2.40;;;0.90;;
3407;SDS011;1717;50.240;8.406;2022-12-29T15:38:45;4.60;;;1.27;;
3407;SDS011;1717;50.240;8.406;2022-12-29T15:41:16;2.83;;;1.30;;
3407;SDS011;1717;50.240;8.406;2022-12-29T15:43:53;3.63;;;1.17;;
3407;SDS011;1717;50.240;8.406;2022-12-29T15:46:38;9.23;;;1.30;;
3407;SDS011;1717;50.240;8.406;2022-12-29T15:49:05;5.60;;;1.80;;
3407;SDS011;1717;50.240;8.406;2022-12-29T15:51:34;7.00;;;1.20;;
3407;SDS011;1717;50.240;8.406;2022-12-29T15:54:03;3.07;;;1.00;;
3407;SDS011;1717;50.240;8.406;2022-12-29T15:56:31;4.37;;;1.17;;
3407;SDS011;1717;50.240;8.406;2022-12-29T15:58:59;3.40;;;1.40;;
3407;SDS011;1717;50.240;8.406;2022-12-29T16:01:27;4.30;;;1.30;;
3407;SDS011;1717;50.240;8.406;2022-12-29T16:03:59;2.43;;;1.23;;